sensor_id;sensor_type;location;lat;lon;timestamp;pressure;altitude;pressure_sealevel;temperature;humidity
63916;BME280;50094;51.356;-0.196;2022-08-21T00:00:49;100888.24;;;27.84;32.37
63916;BME280;50094;51.356;-0.196;2022-08-21T00:03:17;100888.20;;;28.09;32.32
63916;BME280;50094;51.356;-0.196;2022-08-21T00:05:47;100885.84;;;27.81;32.35
63916;BME280;50094;51.356;-0.196;2022-08-21T00:08:16;100880.41;;;27.90;32.29
63916;BME280;50094;51.356;-0.196;2022-08-21T00:10:43;100879.04;;;28.06;32.32
63916;BME280;50094;51.356;-0.196;2022-08-21T00:13:12;100875.93;;;28.00;32.36
63916;BME280;50094;51.356;-0.196;2022-08-21T00:15:40;100872.50;;;27.76;32.38
63916;BME280;50094;51.356;-0.196;2022-08-21T00:18:08;100872.85;;;28.00;32.38
63916;BME280;50094;51.356;-0.196;2022-08-21T00:20:37;100875.14;;;28.01;32.37
63916;BME280;50094;51.356;-0.196;2022-08-21T00:23:04;100873.64;;;27.74;32.41
63916;BME280;50094;51.356;-0.196;2022-08-21T00:25:32;100876.11;;;27.91;32.45
63916;BME280;50094;51.356;-0.196;2022-08-21T00:27:59;100880.45;;;27.97;32.41
63916;BME280;50094;51.356;-0.196;2022-08-21T00:30:28;100883.91;;;27.93;32.45
63916;BME280;50094;51.356;-0.196;2022-08-21T00:32:56;100883.59;;;28.20;32.43
63916;BME280;50094;51.356;-0.196;2022-08-21T00:35:28;100883.01;;;27.69;32.47
63916;BME280;50094;51.356;-0.196;2022-08-21T00:37:55;100882.42;;;27.92;32.47
63916;BME280;50094;51.356;-0.196;2022-08-21T00:40:26;100882.75;;;27.96;32.44
63916;BME280;50094;51.356;-0.196;2022-08-21T00:42:53;100876.65;;;27.95;32.47
63916;BME280;50094;51.356;-0.196;2022-08-21T00:45:22;100875.11;;;27.95;32.47
63916;BME280;50094;51.356;-0.196;2022-08-21T00:47:49;100871.68;;;28.02;32.41
63916;BME280;50094;51.356;-0.196;2022-08-21T00:50:17;100872.16;;;28.25;32.44
63916;BME280;50094;51.356;-0.196;2022-08-21T00:52:45;100873.02;;;27.95;32.47
63916;BME280;50094;51.356;-0.196;2022-08-21T00:55:13;100874.24;;;28.02;32.45
63916;BME280;50094;51.356;-0.196;2022-08-21T00:57:44;100870.07;;;28.21;32.47
63916;BME280;50094;51.356;-0.196;2022-08-21T01:00:16;100858.72;;;27.92;32.50
63916;BME280;50094;51.356;-0.196;2022-08-21T01:02:45;100855.86;;;27.89;32.53
63916;BME280;50094;51.356;-0.196;2022-08-21T01:05:12;100853.66;;;27.93;32.51
63916;BME280;50094;51.356;-0.196;2022-08-21T01:07:41;100851.11;;;28.19;32.50
63916;BME280;50094;51.356;-0.196;2022-08-21T01:10:09;100848.57;;;27.81;32.59
63916;BME280;50094;51.356;-0.196;2022-08-21T01:12:36;100851.09;;;27.85;32.58
63916;BME280;50094;51.356;-0.196;2022-08-21T01:15:06;100855.28;;;27.88;32.56
63916;BME280;50094;51.356;-0.196;2022-08-21T01:17:35;100851.96;;;27.84;32.59
63916;BME280;50094;51.356;-0.196;2022-08-21T01:20:08;100858.87;;;27.80;32.62
63916;BME280;50094;51.356;-0.196;2022-08-21T01:22:35;100863.66;;;27.82;32.61
63916;BME280;50094;51.356;-0.196;2022-08-21T01:25:04;100868.07;;;27.83;32.61
63916;BME280;50094;51.356;-0.196;2022-08-21T01:27:32;100872.76;;;27.79;32.63
63916;BME280;50094;51.356;-0.196;2022-08-21T01:30:04;100871.92;;;27.77;32.65
63916;BME280;50094;51.356;-0.196;2022-08-21T01:32:35;100867.15;;;27.81;32.63
63916;BME280;50094;51.356;-0.196;2022-08-21T01:35:05;100865.69;;;27.58;32.64
63916;BME280;50094;51.356;-0.196;2022-08-21T01:37:33;100865.61;;;27.80;32.65
63916;BME280;50094;51.356;-0.196;2022-08-21T01:40:00;100861.40;;;27.82;32.62
63916;BME280;50094;51.356;-0.196;2022-08-21T01:42:28;100864.89;;;28.09;32.64
63916;BME280;50094;51.356;-0.196;2022-08-21T01:44:55;100867.77;;;27.82;32.66
63916;BME280;50094;51.356;-0.196;2022-08-21T01:47:23;100873.08;;;27.80;32.67
63916;BME280;50094;51.356;-0.196;2022-08-21T01:49:50;100877.09;;;27.64;32.64
63916;BME280;50094;51.356;-0.196;2022-08-21T01:52:18;100875.92;;;27.86;32.62
63916;BME280;50094;51.356;-0.196;2022-08-21T01:54:45;100875.56;;;28.04;32.68
63916;BME280;50094;51.356;-0.196;2022-08-21T01:57:13;100876.50;;;28.04;32.69
63916;BME280;50094;51.356;-0.196;2022-08-21T01:59:41;100874.04;;;27.86;32.64
63916;BME280;50094;51.356;-0.196;2022-08-21T02:02:09;100879.27;;;27.97;32.53
63916;BME280;50094;51.356;-0.196;2022-08-21T02:04:36;100875.83;;;27.92;32.61
63916;BME280;50094;51.356;-0.196;2022-08-21T02:07:04;100872.21;;;27.71;32.57
63916;BME280;50094;51.356;-0.196;2022-08-21T02:09:32;100876.33;;;28.18;32.61
63916;BME280;50094;51.356;-0.196;2022-08-21T02:11:59;100878.59;;;27.98;32.56
63916;BME280;50094;51.356;-0.196;2022-08-21T02:14:27;100876.70;;;27.88;32.64
63916;BME280;50094;51.356;-0.196;2022-08-21T02:16:54;100874.93;;;27.81;32.67
63916;BME280;50094;51.356;-0.196;2022-08-21T02:19:21;100871.61;;;27.85;32.68
63916;BME280;50094;51.356;-0.196;2022-08-21T02:21:49;100874.44;;;27.84;32.69
63916;BME280;50094;51.356;-0.196;2022-08-21T02:24:16;100873.62;;;27.59;32.70
63916;BME280;50094;51.356;-0.196;2022-08-21T02:26:44;100871.13;;;28.15;32.65
63916;BME280;50094;51.356;-0.196;2022-08-21T02:29:12;100866.41;;;28.10;32.70
63916;BME280;50094;51.356;-0.196;2022-08-21T02:31:39;100861.16;;;27.78;32.75
63916;BME280;50094;51.356;-0.196;2022-08-21T02:34:07;100859.28;;;27.89;32.71
63916;BME280;50094;51.356;-0.196;2022-08-21T02:36:34;100859.32;;;27.75;32.78
63916;BME280;50094;51.356;-0.196;2022-08-21T02:39:02;100861.98;;;27.57;32.78
63916;BME280;50094;51.356;-0.196;2022-08-21T02:41:30;100861.98;;;27.72;32.82
63916;BME280;50094;51.356;-0.196;2022-08-21T02:43:57;100859.89;;;28.01;32.83
63916;BME280;50094;51.356;-0.196;2022-08-21T02:46:25;100856.55;;;27.78;32.77
63916;BME280;50094;51.356;-0.196;2022-08-21T02:48:53;100856.65;;;27.77;32.80
63916;BME280;50094;51.356;-0.196;2022-08-21T02:51:20;100858.11;;;27.89;32.72
63916;BME280;50094;51.356;-0.196;2022-08-21T02:53:49;100855.35;;;27.91;32.69
63916;BME280;50094;51.356;-0.196;2022-08-21T02:56:20;100856.96;;;26.38;32.77
63916;BME280;50094;51.356;-0.196;2022-08-21T02:58:49;100857.81;;;27.96;32.47
63916;BME280;50094;51.356;-0.196;2022-08-21T03:01:18;100859.29;;;28.08;32.51
63916;BME280;50094;51.356;-0.196;2022-08-21T03:03:47;100857.97;;;27.92;32.63
63916;BME280;50094;51.356;-0.196;2022-08-21T03:06:15;100855.30;;;27.94;32.59
63916;BME280;50094;51.356;-0.196;2022-08-21T03:08:43;100852.49;;;27.84;32.69
63916;BME280;50094;51.356;-0.196;2022-08-21T03:11:11;100850.61;;;27.73;32.79
63916;BME280;50094;51.356;-0.196;2022-08-21T03:13:39;100849.69;;;27.78;32.74
63916;BME280;50094;51.356;-0.196;2022-08-21T03:16:07;100850.12;;;27.70;32.80
63916;BME280;50094;51.356;-0.196;2022-08-21T03:18:35;100845.42;;;27.70;32.82
63916;BME280;50094;51.356;-0.196;2022-08-21T03:21:02;100843.84;;;27.49;32.81
63916;BME280;50094;51.356;-0.196;2022-08-21T03:23:30;100841.92;;;27.86;32.92
63916;BME280;50094;51.356;-0.196;2022-08-21T03:25:57;100841.12;;;27.68;32.82
63916;BME280;50094;51.356;-0.196;2022-08-21T03:28:25;100839.62;;;27.68;32.82
63916;BME280;50094;51.356;-0.196;2022-08-21T03:30:53;100835.23;;;27.68;32.81
63916;BME280;50094;51.356;-0.196;2022-08-21T03:33:21;100833.70;;;27.65;32.86
63916;BME280;50094;51.356;-0.196;2022-08-21T03:35:54;100837.96;;;27.60;32.90
63916;BME280;50094;51.356;-0.196;2022-08-21T03:38:22;100834.24;;;27.40;32.89
63916;BME280;50094;51.356;-0.196;2022-08-21T03:40:50;100832.70;;;27.61;32.88
63916;BME280;50094;51.356;-0.196;2022-08-21T03:43:18;100834.08;;;27.66;32.83
63916;BME280;50094;51.356;-0.196;2022-08-21T03:45:46;100836.27;;;27.66;32.85
63916;BME280;50094;51.356;-0.196;2022-08-21T03:48:13;100840.37;;;27.58;32.92
63916;BME280;50094;51.356;-0.196;2022-08-21T03:50:42;100841.99;;;27.63;32.88
63916;BME280;50094;51.356;-0.196;2022-08-21T03:53:12;100841.67;;;27.62;32.90
63916;BME280;50094;51.356;-0.196;2022-08-21T03:55:39;100842.63;;;27.38;32.92
63916;BME280;50094;51.356;-0.196;2022-08-21T03:58:07;100847.30;;;27.57;32.92
63916;BME280;50094;51.356;-0.196;2022-08-21T04:00:35;100846.39;;;27.62;32.88
63916;BME280;50094;51.356;-0.196;2022-08-21T04:03:02;100846.16;;;27.69;32.82
63916;BME280;50094;51.356;-0.196;2022-08-21T04:05:30;100846.56;;;27.58;32.91
63916;BME280;50094;51.356;-0.196;2022-08-21T04:07:59;100844.40;;;27.45;32.83
63916;BME280;50094;51.356;-0.196;2022-08-21T04:10:29;100847.41;;;27.95;32.79
63916;BME280;50094;51.356;-0.196;2022-08-21T04:12:58;100847.83;;;27.91;32.85
63916;BME280;50094;51.356;-0.196;2022-08-21T04:15:26;100846.54;;;27.89;32.82
63916;BME280;50094;51.356;-0.196;2022-08-21T04:17:53;100847.62;;;27.57;32.88
63916;BME280;50094;51.356;-0.196;2022-08-21T04:20:21;100847.76;;;27.80;32.92
63916;BME280;50094;51.356;-0.196;2022-08-21T04:22:49;100850.50;;;27.72;32.97
63916;BME280;50094;51.356;-0.196;2022-08-21T04:25:17;100845.55;;;27.80;32.90
63916;BME280;50094;51.356;-0.196;2022-08-21T04:27:44;100847.10;;;27.45;32.96
63916;BME280;50094;51.356;-0.196;2022-08-21T04:30:13;100845.15;;;27.56;32.89
63916;BME280;50094;51.356;-0.196;2022-08-21T04:32:42;100842.83;;;27.49;32.97
63916;BME280;50094;51.356;-0.196;2022-08-21T04:35:11;100842.32;;;27.61;32.85
63916;BME280;50094;51.356;-0.196;2022-08-21T04:37:39;100845.78;;;27.93;32.81
63916;BME280;50094;51.356;-0.196;2022-08-21T04:40:08;100848.03;;;27.69;32.77
63916;BME280;50094;51.356;-0.196;2022-08-21T04:42:42;100847.41;;;27.44;32.80
63916;BME280;50094;51.356;-0.196;2022-08-21T04:45:16;100848.05;;;27.66;32.80
63916;BME280;50094;51.356;-0.196;2022-08-21T04:47:44;100853.67;;;27.73;32.72
63916;BME280;50094;51.356;-0.196;2022-08-21T04:50:11;100859.35;;;27.68;32.77
63916;BME280;50094;51.356;-0.196;2022-08-21T04:52:38;100870.64;;;27.94;32.76
63916;BME280;50094;51.356;-0.196;2022-08-21T04:55:06;100874.64;;;27.78;32.73
63916;BME280;50094;51.356;-0.196;2022-08-21T04:57:34;100878.52;;;27.71;32.80
63916;BME280;50094;51.356;-0.196;2022-08-21T05:00:04;100876.23;;;27.19;32.84
63916;BME280;50094;51.356;-0.196;2022-08-21T05:02:32;100869.40;;;27.65;32.83
63916;BME280;50094;51.356;-0.196;2022-08-21T05:05:00;100863.62;;;27.78;32.70
63916;BME280;50094;51.356;-0.196;2022-08-21T05:07:29;100865.54;;;27.66;32.76
63916;BME280;50094;51.356;-0.196;2022-08-21T05:09:59;100869.81;;;27.70;32.70
63916;BME280;50094;51.356;-0.196;2022-08-21T05:12:27;100870.59;;;27.63;32.75
63916;BME280;50094;51.356;-0.196;2022-08-21T05:14:55;100866.26;;;27.62;32.76
63916;BME280;50094;51.356;-0.196;2022-08-21T05:17:22;100863.26;;;27.60;32.76
63916;BME280;50094;51.356;-0.196;2022-08-21T05:19:50;100869.54;;;27.57;32.78
63916;BME280;50094;51.356;-0.196;2022-08-21T05:22:20;100869.52;;;27.88;32.76
63916;BME280;50094;51.356;-0.196;2022-08-21T05:24:47;100870.55;;;27.60;32.77
63916;BME280;50094;51.356;-0.196;2022-08-21T05:27:14;100873.77;;;27.73;32.66
63916;BME280;50094;51.356;-0.196;2022-08-21T05:29:42;100877.27;;;27.64;32.73
63916;BME280;50094;51.356;-0.196;2022-08-21T05:32:11;100879.35;;;27.61;32.75
63916;BME280;50094;51.356;-0.196;2022-08-21T05:34:39;100879.96;;;27.85;32.77
63916;BME280;50094;51.356;-0.196;2022-08-21T05:37:07;100878.60;;;27.85;32.76
63916;BME280;50094;51.356;-0.196;2022-08-21T05:39:37;100881.70;;;27.57;32.78
63916;BME280;50094;51.356;-0.196;2022-08-21T05:42:05;100888.42;;;27.61;32.75
63916;BME280;50094;51.356;-0.196;2022-08-21T05:44:32;100889.46;;;27.63;32.73
63916;BME280;50094;51.356;-0.196;2022-08-21T05:47:04;100892.86;;;27.58;32.77
63916;BME280;50094;51.356;-0.196;2022-08-21T05:49:32;100893.45;;;27.58;32.78
63916;BME280;50094;51.356;-0.196;2022-08-21T05:51:59;100896.52;;;27.78;32.82
63916;BME280;50094;51.356;-0.196;2022-08-21T05:54:27;100901.20;;;27.48;32.85
63916;BME280;50094;51.356;-0.196;2022-08-21T05:56:54;100903.92;;;27.42;32.93
63916;BME280;50094;51.356;-0.196;2022-08-21T05:59:22;100905.69;;;27.46;32.90
63916;BME280;50094;51.356;-0.196;2022-08-21T06:01:50;100909.68;;;27.49;32.85
63916;BME280;50094;51.356;-0.196;2022-08-21T06:04:17;100909.86;;;27.58;32.82
63916;BME280;50094;51.356;-0.196;2022-08-21T06:06:45;100909.89;;;27.74;32.89
63916;BME280;50094;51.356;-0.196;2022-08-21T06:09:13;100913.94;;;27.52;32.85
63916;BME280;50094;51.356;-0.196;2022-08-21T06:11:40;100913.70;;;27.60;32.79
63916;BME280;50094;51.356;-0.196;2022-08-21T06:14:08;100915.61;;;27.84;32.82
63916;BME280;50094;51.356;-0.196;2022-08-21T06:16:35;100914.97;;;27.76;32.88
63916;BME280;50094;51.356;-0.196;2022-08-21T06:19:03;100917.45;;;27.54;32.82
63916;BME280;50094;51.356;-0.196;2022-08-21T06:21:31;100915.10;;;27.28;32.85
63916;BME280;50094;51.356;-0.196;2022-08-21T06:23:58;100910.72;;;27.48;32.87
63916;BME280;50094;51.356;-0.196;2022-08-21T06:26:26;100910.48;;;27.75;32.87
63916;BME280;50094;51.356;-0.196;2022-08-21T06:28:53;100908.88;;;27.54;32.82
63916;BME280;50094;51.356;-0.196;2022-08-21T06:31:24;100904.36;;;27.73;32.87
63916;BME280;50094;51.356;-0.196;2022-08-21T06:33:51;100901.38;;;27.54;32.82
63916;BME280;50094;51.356;-0.196;2022-08-21T06:36:20;100903.04;;;27.65;32.75
63916;BME280;50094;51.356;-0.196;2022-08-21T06:38:47;100899.01;;;27.89;32.75
63916;BME280;50094;51.356;-0.196;2022-08-21T06:41:15;100895.39;;;27.63;32.73
63916;BME280;50094;51.356;-0.196;2022-08-21T06:43:42;100892.89;;;27.54;32.79
63916;BME280;50094;51.356;-0.196;2022-08-21T06:46:09;100884.50;;;27.53;32.80
63916;BME280;50094;51.356;-0.196;2022-08-21T06:48:37;100881.02;;;27.61;32.73
63916;BME280;50094;51.356;-0.196;2022-08-21T06:51:05;100880.07;;;27.56;32.75
63916;BME280;50094;51.356;-0.196;2022-08-21T06:53:33;100878.15;;;27.69;32.64
63916;BME280;50094;51.356;-0.196;2022-08-21T06:56:02;100879.33;;;27.75;32.61
63916;BME280;50094;51.356;-0.196;2022-08-21T06:58:29;100876.11;;;27.73;32.63
63916;BME280;50094;51.356;-0.196;2022-08-21T07:00:56;100875.73;;;27.50;32.63
63916;BME280;50094;51.356;-0.196;2022-08-21T07:03:26;100881.69;;;27.71;32.66
63916;BME280;50094;51.356;-0.196;2022-08-21T07:05:54;100877.01;;;27.72;32.67
63916;BME280;50094;51.356;-0.196;2022-08-21T07:08:22;100874.29;;;27.73;32.68
63916;BME280;50094;51.356;-0.196;2022-08-21T07:10:49;100870.62;;;27.80;32.65
63916;BME280;50094;51.356;-0.196;2022-08-21T07:13:18;100872.19;;;27.88;32.60
63916;BME280;50094;51.356;-0.196;2022-08-21T07:15:45;100869.32;;;27.84;32.62
63916;BME280;50094;51.356;-0.196;2022-08-21T07:18:13;100867.90;;;27.79;32.64
63916;BME280;50094;51.356;-0.196;2022-08-21T07:20:41;100865.40;;;27.80;32.62
63916;BME280;50094;51.356;-0.196;2022-08-21T07:23:10;100863.60;;;27.85;32.61
63916;BME280;50094;51.356;-0.196;2022-08-21T07:25:39;100863.32;;;27.73;32.67
63916;BME280;50094;51.356;-0.196;2022-08-21T07:28:07;100866.82;;;27.84;32.61
63916;BME280;50094;51.356;-0.196;2022-08-21T07:30:34;100866.24;;;27.84;32.62
63916;BME280;50094;51.356;-0.196;2022-08-21T07:33:02;100868.85;;;27.54;32.64
63916;BME280;50094;51.356;-0.196;2022-08-21T07:35:30;100870.14;;;27.88;32.58
63916;BME280;50094;51.356;-0.196;2022-08-21T07:37:57;100865.03;;;27.92;32.57
63916;BME280;50094;51.356;-0.196;2022-08-21T07:40:25;100861.78;;;27.93;32.57
63916;BME280;50094;51.356;-0.196;2022-08-21T07:42:53;100859.10;;;27.94;32.55
63916;BME280;50094;51.356;-0.196;2022-08-21T07:45:22;100857.51;;;27.89;32.58
63916;BME280;50094;51.356;-0.196;2022-08-21T07:47:49;100860.74;;;27.87;32.59
63916;BME280;50094;51.356;-0.196;2022-08-21T07:50:17;100862.32;;;28.03;32.51
63916;BME280;50094;51.356;-0.196;2022-08-21T07:52:45;100867.70;;;27.99;32.55
63916;BME280;50094;51.356;-0.196;2022-08-21T07:55:16;100869.94;;;27.77;32.56
63916;BME280;50094;51.356;-0.196;2022-08-21T07:57:43;100874.32;;;28.06;32.50
63916;BME280;50094;51.356;-0.196;2022-08-21T08:00:14;100869.78;;;28.11;32.47
63916;BME280;50094;51.356;-0.196;2022-08-21T08:02:45;100868.60;;;27.82;32.49
63916;BME280;50094;51.356;-0.196;2022-08-21T08:05:13;100868.03;;;28.10;32.47
63916;BME280;50094;51.356;-0.196;2022-08-21T08:07:41;100865.93;;;28.03;32.51
63916;BME280;50094;51.356;-0.196;2022-08-21T08:10:10;100860.85;;;27.81;32.51
63916;BME280;50094;51.356;-0.196;2022-08-21T08:12:39;100860.04;;;28.05;32.50
63916;BME280;50094;51.356;-0.196;2022-08-21T08:15:11;100862.93;;;27.78;32.53
63916;BME280;50094;51.356;-0.196;2022-08-21T08:17:38;100862.65;;;28.01;32.54
63916;BME280;50094;51.356;-0.196;2022-08-21T08:20:07;100859.80;;;27.73;32.58
63916;BME280;50094;51.356;-0.196;2022-08-21T08:22:37;100855.98;;;28.15;32.63
63916;BME280;50094;51.356;-0.196;2022-08-21T08:25:07;100857.42;;;27.90;32.63
63916;BME280;50094;51.356;-0.196;2022-08-21T08:27:34;100856.45;;;27.87;32.66
63916;BME280;50094;51.356;-0.196;2022-08-21T08:30:03;100857.72;;;27.62;32.68
63916;BME280;50094;51.356;-0.196;2022-08-21T08:32:31;100855.55;;;27.85;32.67
63916;BME280;50094;51.356;-0.196;2022-08-21T08:34:59;100847.43;;;27.98;32.57
63916;BME280;50094;51.356;-0.196;2022-08-21T08:37:26;100842.73;;;27.93;32.61
63916;BME280;50094;51.356;-0.196;2022-08-21T08:39:54;100838.79;;;27.94;32.60
63916;BME280;50094;51.356;-0.196;2022-08-21T08:42:25;100836.66;;;27.90;32.62
63916;BME280;50094;51.356;-0.196;2022-08-21T08:44:57;100839.69;;;27.92;32.62
63916;BME280;50094;51.356;-0.196;2022-08-21T08:47:26;100839.01;;;27.88;32.65
63916;BME280;50094;51.356;-0.196;2022-08-21T08:49:59;100840.13;;;27.88;32.65
63916;BME280;50094;51.356;-0.196;2022-08-21T08:52:29;100845.04;;;27.94;32.62
63916;BME280;50094;51.356;-0.196;2022-08-21T08:55:02;100855.00;;;27.98;32.62
63916;BME280;50094;51.356;-0.196;2022-08-21T08:57:31;100856.33;;;28.01;32.61
63916;BME280;50094;51.356;-0.196;2022-08-21T09:00:05;100854.44;;;27.98;32.64
63916;BME280;50094;51.356;-0.196;2022-08-21T09:02:32;100851.15;;;28.02;32.64
63916;BME280;50094;51.356;-0.196;2022-08-21T09:05:00;100853.55;;;27.89;32.60
63916;BME280;50094;51.356;-0.196;2022-08-21T09:07:34;100857.38;;;28.13;32.58
63916;BME280;50094;51.356;-0.196;2022-08-21T09:10:11;100867.38;;;28.07;32.76
63916;BME280;50094;51.356;-0.196;2022-08-21T09:12:50;100875.41;;;28.28;32.61
63916;BME280;50094;51.356;-0.196;2022-08-21T09:15:25;100876.75;;;28.00;32.91
63916;BME280;50094;51.356;-0.196;2022-08-21T09:18:08;100875.08;;;28.26;32.68
63916;BME280;50094;51.356;-0.196;2022-08-21T09:20:47;100875.79;;;28.40;32.61
63916;BME280;50094;51.356;-0.196;2022-08-21T09:23:25;100882.32;;;28.29;32.54
63916;BME280;50094;51.356;-0.196;2022-08-21T09:26:02;100883.19;;;28.59;32.48
63916;BME280;50094;51.356;-0.196;2022-08-21T09:28:33;100884.07;;;28.31;32.48
63916;BME280;50094;51.356;-0.196;2022-08-21T09:31:01;100891.93;;;28.30;32.50
63916;BME280;50094;51.356;-0.196;2022-08-21T09:33:30;100897.31;;;28.03;32.53
63916;BME280;50094;51.356;-0.196;2022-08-21T09:35:58;100896.53;;;28.28;32.50
63916;BME280;50094;51.356;-0.196;2022-08-21T09:38:29;100901.30;;;28.26;32.50
63916;BME280;50094;51.356;-0.196;2022-08-21T09:41:00;100901.53;;;28.51;32.48
63916;BME280;50094;51.356;-0.196;2022-08-21T09:43:28;100904.65;;;28.36;32.43
63916;BME280;50094;51.356;-0.196;2022-08-21T09:46:07;100901.02;;;28.63;32.39
63916;BME280;50094;51.356;-0.196;2022-08-21T09:48:41;100896.10;;;28.36;32.40
63916;BME280;50094;51.356;-0.196;2022-08-21T09:51:17;100897.37;;;28.11;32.41
63916;BME280;50094;51.356;-0.196;2022-08-21T09:53:47;100894.02;;;28.58;32.36
63916;BME280;50094;51.356;-0.196;2022-08-21T09:56:19;100893.49;;;28.32;32.39
63916;BME280;50094;51.356;-0.196;2022-08-21T09:58:50;100890.54;;;28.21;32.46
63916;BME280;50094;51.356;-0.196;2022-08-21T10:01:19;100895.27;;;28.20;32.48
63916;BME280;50094;51.356;-0.196;2022-08-21T10:03:48;100893.31;;;28.45;32.47
63916;BME280;50094;51.356;-0.196;2022-08-21T10:06:23;100894.32;;;28.06;32.58
63916;BME280;50094;51.356;-0.196;2022-08-21T10:09:02;100897.62;;;28.18;32.49
63916;BME280;50094;51.356;-0.196;2022-08-21T10:11:31;100892.54;;;28.17;32.50
63916;BME280;50094;51.356;-0.196;2022-08-21T10:14:03;100887.22;;;28.21;32.44
63916;BME280;50094;51.356;-0.196;2022-08-21T10:16:48;100887.11;;;28.41;32.45
63916;BME280;50094;51.356;-0.196;2022-08-21T10:19:25;100883.25;;;28.27;32.50
63916;BME280;50094;51.356;-0.196;2022-08-21T10:22:04;100878.97;;;28.08;32.46
63916;BME280;50094;51.356;-0.196;2022-08-21T10:24:47;100879.60;;;28.32;32.44
63916;BME280;50094;51.356;-0.196;2022-08-21T10:27:24;100878.63;;;28.14;32.42
63916;BME280;50094;51.356;-0.196;2022-08-21T10:29:57;100877.79;;;28.27;32.49
63916;BME280;50094;51.356;-0.196;2022-08-21T10:32:43;100873.40;;;27.98;32.55
63916;BME280;50094;51.356;-0.196;2022-08-21T10:35:18;100871.93;;;28.33;32.44
63916;BME280;50094;51.356;-0.196;2022-08-21T10:38:01;100871.81;;;28.29;32.46
63916;BME280;50094;51.356;-0.196;2022-08-21T10:40:36;100864.66;;;28.28;32.48
63916;BME280;50094;51.356;-0.196;2022-08-21T10:43:19;100865.03;;;28.30;32.45
63916;BME280;50094;51.356;-0.196;2022-08-21T10:45:56;100866.31;;;28.35;32.42
63916;BME280;50094;51.356;-0.196;2022-08-21T10:48:36;100862.68;;;28.29;32.43
63916;BME280;50094;51.356;-0.196;2022-08-21T10:51:10;100858.15;;;28.36;32.39
63916;BME280;50094;51.356;-0.196;2022-08-21T10:53:48;100852.98;;;27.86;32.42
63916;BME280;50094;51.356;-0.196;2022-08-21T10:56:19;100855.22;;;28.30;32.42
63916;BME280;50094;51.356;-0.196;2022-08-21T10:59:01;100858.44;;;28.07;32.39
63916;BME280;50094;51.356;-0.196;2022-08-21T11:01:33;100857.28;;;27.99;32.45
63916;BME280;50094;51.356;-0.196;2022-08-21T11:04:10;100861.66;;;28.42;32.30
63916;BME280;50094;51.356;-0.196;2022-08-21T11:06:40;100861.46;;;28.03;32.42
63916;BME280;50094;51.356;-0.196;2022-08-21T11:09:13;100858.67;;;27.92;32.36
63916;BME280;50094;51.356;-0.196;2022-08-21T11:11:45;100862.20;;;28.21;32.28
63916;BME280;50094;51.356;-0.196;2022-08-21T11:14:21;100864.58;;;28.18;32.28
63916;BME280;50094;51.356;-0.196;2022-08-21T11:16:58;100866.08;;;28.37;32.27
63916;BME280;50094;51.356;-0.196;2022-08-21T11:19:30;100872.30;;;28.37;32.28
63916;BME280;50094;51.356;-0.196;2022-08-21T11:22:06;100872.55;;;28.26;32.35
63916;BME280;50094;51.356;-0.196;2022-08-21T11:24:42;100870.03;;;28.21;32.38
63916;BME280;50094;51.356;-0.196;2022-08-21T11:27:20;100874.33;;;28.36;32.28
63916;BME280;50094;51.356;-0.196;2022-08-21T11:29:52;100872.59;;;28.26;32.33
63916;BME280;50094;51.356;-0.196;2022-08-21T11:32:32;100870.14;;;28.06;32.32
63916;BME280;50094;51.356;-0.196;2022-08-21T11:35:09;100869.30;;;28.04;32.33
63916;BME280;50094;51.356;-0.196;2022-08-21T11:37:47;100871.59;;;27.94;32.39
63916;BME280;50094;51.356;-0.196;2022-08-21T11:40:26;100873.60;;;28.00;32.34
63916;BME280;50094;51.356;-0.196;2022-08-21T11:43:04;100875.98;;;28.13;32.25
63916;BME280;50094;51.356;-0.196;2022-08-21T11:45:39;100875.72;;;27.95;32.20
63916;BME280;50094;51.356;-0.196;2022-08-21T11:48:18;100873.15;;;28.34;32.24
63916;BME280;50094;51.356;-0.196;2022-08-21T11:50:52;100874.56;;;28.17;32.20
63916;BME280;50094;51.356;-0.196;2022-08-21T11:53:25;100874.21;;;28.33;32.24
63916;BME280;50094;51.356;-0.196;2022-08-21T11:55:59;100876.38;;;28.02;32.31
63916;BME280;50094;51.356;-0.196;2022-08-21T11:58:31;100879.31;;;28.07;32.27
63916;BME280;50094;51.356;-0.196;2022-08-21T12:01:05;100879.64;;;27.87;32.26
63916;BME280;50094;51.356;-0.196;2022-08-21T12:03:36;100878.95;;;28.38;32.23
63916;BME280;50094;51.356;-0.196;2022-08-21T12:06:07;100877.23;;;27.96;32.21
63916;BME280;50094;51.356;-0.196;2022-08-21T12:08:37;100876.80;;;28.13;32.24
63916;BME280;50094;51.356;-0.196;2022-08-21T12:11:08;100879.86;;;28.34;32.24
63916;BME280;50094;51.356;-0.196;2022-08-21T12:13:37;100876.27;;;28.39;32.23
63916;BME280;50094;51.356;-0.196;2022-08-21T12:16:08;100882.33;;;28.11;32.27
63916;BME280;50094;51.356;-0.196;2022-08-21T12:18:35;100882.97;;;28.17;32.38
63916;BME280;50094;51.356;-0.196;2022-08-21T12:21:15;100880.27;;;27.74;32.36
63916;BME280;50094;51.356;-0.196;2022-08-21T12:23:46;100878.57;;;28.16;32.24
63916;BME280;50094;51.356;-0.196;2022-08-21T12:26:22;100878.19;;;28.37;32.25
63916;BME280;50094;51.356;-0.196;2022-08-21T12:28:50;100870.65;;;27.94;32.24
63916;BME280;50094;51.356;-0.196;2022-08-21T12:31:21;100868.97;;;28.08;32.27
63916;BME280;50094;51.356;-0.196;2022-08-21T12:33:55;100864.86;;;28.34;32.24
63916;BME280;50094;51.356;-0.196;2022-08-21T12:36:30;100864.47;;;28.26;32.28
63916;BME280;50094;51.356;-0.196;2022-08-21T12:39:12;100860.08;;;28.11;32.24
63916;BME280;50094;51.356;-0.196;2022-08-21T12:41:45;100856.18;;;28.20;32.17
63916;BME280;50094;51.356;-0.196;2022-08-21T12:44:16;100850.06;;;28.42;32.17
63916;BME280;50094;51.356;-0.196;2022-08-21T12:46:47;100850.89;;;28.17;32.18
63916;BME280;50094;51.356;-0.196;2022-08-21T12:49:23;100852.22;;;28.19;32.17
63916;BME280;50094;51.356;-0.196;2022-08-21T12:51:59;100847.14;;;28.17;32.17
63916;BME280;50094;51.356;-0.196;2022-08-21T12:54:30;100849.92;;;28.12;32.20